createdAt,value
2017-05-24T00:02:25.947Z,16.70
2017-05-24T00:04:54.767Z,16.70
2017-05-24T00:07:23.613Z,16.70
2017-05-24T00:09:52.413Z,16.60
2017-05-24T00:12:21.239Z,16.60
2017-05-24T00:14:50.070Z,16.50
2017-05-24T00:17:18.882Z,16.30
2017-05-24T00:19:47.751Z,16.30
2017-05-24T00:22:16.587Z,16.30
2017-05-24T00:24:45.395Z,16.30
2017-05-24T00:27:14.227Z,16.30
2017-05-24T00:29:43.057Z,16.40
2017-05-24T00:32:11.926Z,16.30
2017-05-24T00:34:40.734Z,16.20
2017-05-24T00:37:09.538Z,16.20
2017-05-24T00:39:38.433Z,16.10
2017-05-24T00:42:07.231Z,16.20
2017-05-24T00:44:36.043Z,16.30
2017-05-24T00:47:04.895Z,16.10
2017-05-24T00:49:33.714Z,16.00
2017-05-24T00:52:02.519Z,16.10
2017-05-24T00:54:31.363Z,16.10
2017-05-24T00:57:00.187Z,16.00
2017-05-24T00:59:29.022Z,16.00
2017-05-24T01:01:57.834Z,15.90
2017-05-24T01:04:26.646Z,15.80
2017-05-24T01:06:55.490Z,15.70
2017-05-24T01:09:24.299Z,15.80
2017-05-24T01:11:53.154Z,15.80
2017-05-24T01:14:21.962Z,15.80
2017-05-24T01:16:50.770Z,15.70
2017-05-24T01:19:19.666Z,15.70
2017-05-24T01:21:48.570Z,15.70
2017-05-24T01:24:16.703Z,15.70
2017-05-24T01:26:45.587Z,15.70
2017-05-24T01:29:14.435Z,15.80
2017-05-24T01:31:43.263Z,15.90
2017-05-24T01:34:12.117Z,15.90
2017-05-24T01:36:40.911Z,15.80
2017-05-24T01:39:09.719Z,15.80
2017-05-24T01:41:38.547Z,15.80
2017-05-24T01:44:07.354Z,15.90
2017-05-24T01:46:36.299Z,15.80
2017-05-24T01:49:05.155Z,15.80
2017-05-24T01:51:34.212Z,15.70
2017-05-24T01:54:03.031Z,15.70
2017-05-24T01:56:31.852Z,15.80
2017-05-24T01:59:00.655Z,15.80
2017-05-24T02:01:29.544Z,15.80
2017-05-24T02:03:58.358Z,15.80
2017-05-24T02:06:27.167Z,15.80
2017-05-24T02:08:55.999Z,15.90
2017-05-24T02:11:24.811Z,15.90
2017-05-24T02:13:53.668Z,15.80
2017-05-24T02:16:22.507Z,15.80
2017-05-24T02:18:51.324Z,15.90
2017-05-24T02:21:20.175Z,16.00
2017-05-24T02:23:48.982Z,16.00
2017-05-24T02:26:17.792Z,15.90
2017-05-24T02:28:46.654Z,16.00
2017-05-24T02:31:15.519Z,15.90
2017-05-24T02:33:44.315Z,15.90
2017-05-24T02:36:13.142Z,15.80
2017-05-24T02:38:41.956Z,15.90
2017-05-24T02:41:10.866Z,15.80
2017-05-24T02:43:39.715Z,15.80
2017-05-24T02:46:08.523Z,15.80
2017-05-24T02:48:37.355Z,15.80
2017-05-24T02:51:06.215Z,15.50
2017-05-24T02:53:35.064Z,15.50
2017-05-24T02:56:03.871Z,15.40
2017-05-24T02:58:32.683Z,15.50
2017-05-24T03:01:01.523Z,15.60
2017-05-24T03:03:30.378Z,15.40
2017-05-24T03:05:59.292Z,15.30
2017-05-24T03:08:28.133Z,15.30
2017-05-24T03:10:57.011Z,15.20
2017-05-24T03:13:25.796Z,15.40
2017-05-24T03:15:54.642Z,15.20
2017-05-24T03:18:23.493Z,15.00
2017-05-24T03:20:52.351Z,14.80
2017-05-24T03:23:21.184Z,14.90
2017-05-24T03:25:50.059Z,14.90
2017-05-24T03:28:18.865Z,14.90
2017-05-24T03:30:47.791Z,15.00
2017-05-24T03:33:16.672Z,14.80
2017-05-24T03:35:45.613Z,14.70
2017-05-24T03:38:14.564Z,14.50
2017-05-24T03:40:43.474Z,14.60
2017-05-24T03:43:12.361Z,14.50
2017-05-24T03:45:41.213Z,14.40
2017-05-24T03:48:10.081Z,14.40
2017-05-24T03:50:38.941Z,14.50
2017-05-24T03:53:07.831Z,14.50
2017-05-24T03:55:36.635Z,14.50
2017-05-24T03:58:05.583Z,14.50
2017-05-24T04:00:34.410Z,14.40
2017-05-24T04:03:03.231Z,14.50
2017-05-24T04:05:32.066Z,14.50
2017-05-24T04:08:00.882Z,14.40
2017-05-24T04:10:29.738Z,14.50
2017-05-24T04:12:58.552Z,14.50
2017-05-24T04:15:27.386Z,14.50
2017-05-24T04:17:56.193Z,14.40
2017-05-24T04:20:25.043Z,14.40
2017-05-24T04:22:53.849Z,14.40
2017-05-24T04:25:22.716Z,14.50
2017-05-24T04:27:51.618Z,14.50
2017-05-24T04:30:20.482Z,14.60
2017-05-24T04:32:49.438Z,14.60
2017-05-24T04:35:18.267Z,14.60
2017-05-24T04:37:47.277Z,14.60
2017-05-24T04:40:16.128Z,14.80
2017-05-24T04:42:44.926Z,15.10
2017-05-24T04:45:13.781Z,15.30
2017-05-24T04:47:42.611Z,15.40
2017-05-24T04:50:11.431Z,15.50
2017-05-24T04:52:40.272Z,15.60
2017-05-24T04:55:09.111Z,15.70
2017-05-24T04:57:37.955Z,15.80
2017-05-24T05:00:06.811Z,15.60
2017-05-24T05:02:35.694Z,15.40
2017-05-24T05:05:04.531Z,15.40
2017-05-24T05:07:33.406Z,15.40
2017-05-24T05:10:02.369Z,15.50
2017-05-24T05:12:31.149Z,15.50
2017-05-24T05:15:00.132Z,15.40
2017-05-24T05:17:28.955Z,15.30
2017-05-24T05:19:57.762Z,15.30
2017-05-24T05:22:26.652Z,15.00
2017-05-24T05:24:55.513Z,15.00
2017-05-24T05:27:24.351Z,15.10
2017-05-24T05:29:53.281Z,15.10
2017-05-24T05:32:22.111Z,15.00
2017-05-24T05:34:51.020Z,15.30
2017-05-24T05:37:19.896Z,15.50
2017-05-24T05:39:48.710Z,15.70
2017-05-24T05:42:17.519Z,15.80
2017-05-24T05:44:46.355Z,15.90
2017-05-24T05:47:15.162Z,15.90
2017-05-24T05:49:44.068Z,16.10
2017-05-24T05:52:12.934Z,16.20
2017-05-24T05:54:41.858Z,16.30
2017-05-24T05:57:10.797Z,16.50
2017-05-24T05:59:39.672Z,16.60
2017-05-24T06:02:08.535Z,16.60
2017-05-24T06:04:37.403Z,16.60
2017-05-24T06:07:06.250Z,16.60
2017-05-24T06:09:35.143Z,16.70
2017-05-24T06:12:04.053Z,16.70
2017-05-24T06:14:32.883Z,16.80
2017-05-24T06:17:01.774Z,16.70
2017-05-24T06:19:30.646Z,16.70
2017-05-24T06:21:59.475Z,16.80
2017-05-24T06:24:27.656Z,16.80
2017-05-24T06:26:56.520Z,17.20
2017-05-24T06:29:25.323Z,17.30
2017-05-24T06:31:54.155Z,17.40
2017-05-24T06:34:22.987Z,17.40
2017-05-24T06:36:51.818Z,17.40
2017-05-24T06:39:20.726Z,17.60
2017-05-24T06:41:49.518Z,17.60
2017-05-24T06:44:18.460Z,17.40
2017-05-24T06:46:47.278Z,17.50
2017-05-24T06:49:16.146Z,17.60
2017-05-24T06:51:45.103Z,17.50
2017-05-24T06:54:13.899Z,17.70
2017-05-24T06:56:42.752Z,18.10
2017-05-24T06:59:11.612Z,18.40
2017-05-24T07:01:40.453Z,18.60
2017-05-24T07:04:09.253Z,18.50
2017-05-24T07:06:38.121Z,18.30
2017-05-24T07:09:06.931Z,18.30
2017-05-24T07:11:35.764Z,18.30
2017-05-24T07:14:03.907Z,18.30
2017-05-24T07:16:32.751Z,18.60
2017-05-24T07:19:01.646Z,18.60
2017-05-24T07:21:30.543Z,18.60
2017-05-24T07:23:59.338Z,18.80
2017-05-24T07:26:28.170Z,18.80
2017-05-24T07:28:57.019Z,19.00
2017-05-24T07:31:25.927Z,19.10
2017-05-24T07:33:54.769Z,19.40
2017-05-24T07:36:23.665Z,19.50
2017-05-24T07:38:52.603Z,19.40
2017-05-24T07:41:21.458Z,19.20
2017-05-24T07:43:50.341Z,19.30
2017-05-24T07:46:19.303Z,19.20
2017-05-24T07:48:48.223Z,19.20
2017-05-24T07:51:17.055Z,19.20
2017-05-24T07:53:45.993Z,19.30
2017-05-24T07:56:14.911Z,19.40
2017-05-24T07:58:43.696Z,19.40
2017-05-24T08:01:12.523Z,19.60
2017-05-24T08:03:41.438Z,19.70
2017-05-24T08:06:10.332Z,19.70
2017-05-24T08:08:39.219Z,19.70
2017-05-24T08:11:08.074Z,19.90
2017-05-24T08:13:36.914Z,20.30
2017-05-24T08:16:05.726Z,20.30
2017-05-24T08:18:34.573Z,20.50
2017-05-24T08:21:03.385Z,20.40
2017-05-24T08:23:32.207Z,20.40
2017-05-24T08:26:01.069Z,20.50
2017-05-24T08:28:29.957Z,20.90
2017-05-24T08:30:58.888Z,21.20
2017-05-24T08:33:27.796Z,21.50
2017-05-24T08:35:56.629Z,21.70
2017-05-24T08:38:25.503Z,21.90
2017-05-24T08:40:54.377Z,22.10
2017-05-24T08:43:23.283Z,22.30
2017-05-24T08:45:52.094Z,22.10
2017-05-24T08:48:20.931Z,22.20
2017-05-24T08:50:49.753Z,22.10
2017-05-24T08:53:18.596Z,22.10
2017-05-24T08:55:47.466Z,22.20
2017-05-24T08:58:16.284Z,22.50
2017-05-24T09:00:45.123Z,22.60
2017-05-24T09:03:13.935Z,22.70
2017-05-24T09:05:42.743Z,22.50
2017-05-24T09:08:11.590Z,22.70
2017-05-24T09:10:40.415Z,22.80
2017-05-24T09:13:09.247Z,22.90
2017-05-24T09:15:38.093Z,22.80
2017-05-24T09:18:06.944Z,23.20
2017-05-24T09:20:35.745Z,23.50
2017-05-24T09:23:04.590Z,23.80
2017-05-24T09:25:32.652Z,23.80
2017-05-24T09:28:01.472Z,23.40
2017-05-24T09:30:30.318Z,23.00
2017-05-24T09:32:59.166Z,22.90
2017-05-24T09:35:28.006Z,22.70
2017-05-24T09:37:56.823Z,22.50
2017-05-24T09:40:25.666Z,22.40
2017-05-24T09:42:54.520Z,22.10
2017-05-24T09:45:23.331Z,22.20
2017-05-24T09:47:52.159Z,22.40
2017-05-24T09:50:21.059Z,22.60
2017-05-24T09:52:49.880Z,22.50
2017-05-24T09:55:18.675Z,22.50
2017-05-24T09:57:47.523Z,22.30
2017-05-24T10:00:16.343Z,22.40
2017-05-24T10:02:45.161Z,22.60
2017-05-24T10:05:14.000Z,22.60
2017-05-24T10:07:42.841Z,22.70
2017-05-24T10:10:11.666Z,23.00
2017-05-24T10:12:40.496Z,23.00
2017-05-24T10:15:09.331Z,22.50
2017-05-24T10:17:38.188Z,22.10
2017-05-24T10:20:07.007Z,22.20
2017-05-24T10:22:35.829Z,22.60
2017-05-24T10:25:04.667Z,23.00
2017-05-24T10:27:33.531Z,23.10
2017-05-24T10:30:02.343Z,23.30
2017-05-24T10:32:31.193Z,23.90
2017-05-24T10:35:00.010Z,24.10
2017-05-24T10:37:28.864Z,24.00
2017-05-24T10:40:17.516Z,24.20
2017-05-24T10:42:46.343Z,24.10
2017-05-24T10:45:15.163Z,24.20
2017-05-24T10:47:44.012Z,23.80
2017-05-24T10:50:12.947Z,23.90
2017-05-24T10:52:42.727Z,23.60
2017-05-24T10:55:10.815Z,23.60
2017-05-24T10:57:39.690Z,24.30
2017-05-24T11:00:08.510Z,24.50
2017-05-24T11:02:37.374Z,24.60
2017-05-24T11:05:06.184Z,24.40
2017-05-24T11:07:35.048Z,24.30
2017-05-24T11:10:03.876Z,24.40
2017-05-24T11:12:32.758Z,24.20
2017-05-24T11:15:01.588Z,24.20
2017-05-24T11:17:30.483Z,24.20
2017-05-24T11:19:59.431Z,23.90
2017-05-24T11:22:28.274Z,23.90
2017-05-24T11:24:57.196Z,24.10
2017-05-24T11:27:26.069Z,24.00
2017-05-24T11:29:55.503Z,24.00
2017-05-24T11:32:24.315Z,24.30
2017-05-24T11:34:53.163Z,24.40
2017-05-24T11:37:22.292Z,24.10
2017-05-24T11:39:51.111Z,24.10
2017-05-24T11:42:19.918Z,23.80
2017-05-24T11:44:48.771Z,23.30
2017-05-24T11:47:17.599Z,23.10
2017-05-24T11:49:46.446Z,23.10
2017-05-24T11:52:15.255Z,23.00
2017-05-24T11:54:44.132Z,23.00
2017-05-24T11:57:12.975Z,23.20
2017-05-24T11:59:41.782Z,23.20
2017-05-24T12:02:10.627Z,23.00
2017-05-24T12:04:39.468Z,23.10
2017-05-24T12:07:08.336Z,23.20
2017-05-24T12:09:37.150Z,23.30
2017-05-24T12:12:05.995Z,23.20
2017-05-24T12:14:34.830Z,23.20
2017-05-24T12:17:03.634Z,23.20
2017-05-24T12:19:32.480Z,23.30
2017-05-24T12:22:01.318Z,23.10
2017-05-24T12:24:30.158Z,23.20
2017-05-24T12:26:59.019Z,23.20
2017-05-24T12:29:27.824Z,22.80
2017-05-24T12:31:56.725Z,22.40
2017-05-24T12:34:25.039Z,22.30
2017-05-24T12:36:53.307Z,22.00
2017-05-24T12:39:21.578Z,21.80
2017-05-24T12:41:49.823Z,21.60
2017-05-24T12:44:18.067Z,21.50
2017-05-24T12:46:46.349Z,21.30
2017-05-24T12:49:14.663Z,21.20
2017-05-24T12:51:42.902Z,21.10
2017-05-24T12:54:11.203Z,21.20
2017-05-24T12:56:39.447Z,21.10
2017-05-24T12:59:07.698Z,21.20
2017-05-24T13:01:35.987Z,21.10
2017-05-24T13:04:04.254Z,21.10
2017-05-24T13:06:32.513Z,21.10
2017-05-24T13:09:01.262Z,21.20
2017-05-24T13:11:30.121Z,21.30
2017-05-24T13:13:58.999Z,21.30
2017-05-24T13:16:27.362Z,21.30
2017-05-24T13:18:56.086Z,21.20
2017-05-24T13:21:24.538Z,21.10
2017-05-24T13:23:52.794Z,21.10
2017-05-24T13:26:21.034Z,21.20
2017-05-24T13:28:49.314Z,21.00
2017-05-24T13:31:17.571Z,21.00
2017-05-24T13:33:45.807Z,21.00
2017-05-24T13:36:14.086Z,20.90
2017-05-24T13:38:42.336Z,20.90
2017-05-24T13:41:10.586Z,20.90
2017-05-24T13:43:38.870Z,20.90
2017-05-24T13:46:07.142Z,20.70
2017-05-24T13:48:35.379Z,20.80
2017-05-24T13:51:03.656Z,20.70
2017-05-24T13:53:31.907Z,20.70
2017-05-24T13:56:00.147Z,20.60
2017-05-24T13:58:28.415Z,20.60
2017-05-24T14:00:56.682Z,20.60
2017-05-24T14:03:24.935Z,20.60
2017-05-24T14:05:53.243Z,20.60
2017-05-24T14:08:21.489Z,20.70
2017-05-24T14:10:49.754Z,20.60
2017-05-24T14:13:18.038Z,20.70
2017-05-24T14:15:46.777Z,20.70
2017-05-24T14:18:15.590Z,20.90
2017-05-24T14:20:43.940Z,20.90
2017-05-24T14:23:12.722Z,21.00
2017-05-24T14:25:41.541Z,21.20
2017-05-24T14:28:10.347Z,21.50
2017-05-24T14:30:39.201Z,21.60
2017-05-24T14:33:08.929Z,21.70
2017-05-24T14:35:37.775Z,22.20
2017-05-24T14:38:06.614Z,22.50
2017-05-24T14:40:35.490Z,22.60
2017-05-24T14:43:04.319Z,22.80
2017-05-24T14:45:33.196Z,22.80
2017-05-24T14:48:01.999Z,22.90
2017-05-24T14:50:31.312Z,23.00
2017-05-24T14:53:00.164Z,22.70
2017-05-24T14:55:28.975Z,22.50
2017-05-24T14:57:57.797Z,22.30
2017-05-24T15:00:26.650Z,22.00
2017-05-24T15:02:55.503Z,21.70
2017-05-24T15:05:24.319Z,21.60
2017-05-24T15:07:53.180Z,21.80
2017-05-24T15:10:21.999Z,21.90
2017-05-24T15:12:50.810Z,21.90
2017-05-24T15:15:19.651Z,21.70
2017-05-24T15:17:48.510Z,21.70
2017-05-24T15:20:17.334Z,21.70
2017-05-24T15:22:46.178Z,21.80
2017-05-24T15:25:15.011Z,22.00
2017-05-24T15:27:43.869Z,22.20
2017-05-24T15:30:12.688Z,22.60
2017-05-24T15:32:41.584Z,22.60
2017-05-24T15:35:10.455Z,22.50
2017-05-24T15:37:39.269Z,22.30
2017-05-24T15:40:08.151Z,22.30
2017-05-24T15:42:37.031Z,22.20
2017-05-24T15:45:05.871Z,22.30
2017-05-24T15:47:34.715Z,22.60
2017-05-24T15:50:03.530Z,22.90
2017-05-24T15:52:32.347Z,22.90
2017-05-24T15:55:01.260Z,22.80
2017-05-24T15:57:30.055Z,22.90
2017-05-24T15:59:58.910Z,23.00
2017-05-24T16:02:27.759Z,23.10
2017-05-24T16:04:56.647Z,22.70
2017-05-24T16:07:25.503Z,22.50
2017-05-24T16:09:54.342Z,22.40
2017-05-24T16:12:23.155Z,22.30
2017-05-24T16:14:52.008Z,22.30
2017-05-24T16:17:20.810Z,22.30
2017-05-24T16:19:49.667Z,22.30
2017-05-24T16:22:18.500Z,22.30
2017-05-24T16:24:47.308Z,22.40
2017-05-24T16:27:16.166Z,22.20
2017-05-24T16:29:44.994Z,21.90
2017-05-24T16:32:13.822Z,21.90
2017-05-24T16:34:42.630Z,21.80
2017-05-24T16:37:10.984Z,21.60
2017-05-24T16:39:39.742Z,21.50
2017-05-24T16:42:08.114Z,21.30
2017-05-24T16:44:36.355Z,21.10
2017-05-24T16:47:04.631Z,21.00
2017-05-24T16:49:32.988Z,21.00
2017-05-24T16:52:01.218Z,20.90
2017-05-24T16:54:29.472Z,20.80
2017-05-24T16:56:57.768Z,20.80
2017-05-24T16:59:26.030Z,20.80
2017-05-24T17:01:54.273Z,20.70
2017-05-24T17:04:22.556Z,20.70
2017-05-24T17:06:50.822Z,20.70
2017-05-24T17:09:19.082Z,20.60
2017-05-24T17:11:47.349Z,20.60
2017-05-24T17:14:15.606Z,20.50
2017-05-24T17:16:43.873Z,20.50
2017-05-24T17:19:12.181Z,20.40
2017-05-24T17:21:40.434Z,20.30
2017-05-24T17:24:08.658Z,20.20
2017-05-24T17:26:36.959Z,20.30
2017-05-24T17:29:05.196Z,20.30
2017-05-24T17:31:33.987Z,20.30
2017-05-24T17:34:02.841Z,20.50
2017-05-24T17:36:31.660Z,20.60
2017-05-24T17:39:00.470Z,20.60
2017-05-24T17:41:28.840Z,20.60
2017-05-24T17:43:57.570Z,20.60
2017-05-24T17:46:25.938Z,20.60
2017-05-24T17:48:54.918Z,20.60
2017-05-24T17:51:23.660Z,20.50
2017-05-24T17:53:52.498Z,20.60
2017-05-24T17:56:21.312Z,20.50
2017-05-24T17:58:50.147Z,20.50
2017-05-24T18:01:19.045Z,20.40
2017-05-24T18:03:47.355Z,20.50
2017-05-24T18:06:16.105Z,20.40
2017-05-24T18:08:44.498Z,20.50
2017-05-24T18:11:12.906Z,20.50
2017-05-24T18:13:41.206Z,20.40
2017-05-24T18:16:09.496Z,20.40
2017-05-24T18:18:37.803Z,20.40
2017-05-24T18:21:06.063Z,20.30
2017-05-24T18:23:34.303Z,20.30
2017-05-24T18:26:02.670Z,20.20
2017-05-24T18:28:30.919Z,20.30
2017-05-24T18:30:59.178Z,20.20
2017-05-24T18:33:27.463Z,20.30
2017-05-24T18:35:55.707Z,20.20
2017-05-24T18:38:23.975Z,20.20
2017-05-24T18:40:52.310Z,20.10
2017-05-24T18:43:20.603Z,20.00
2017-05-24T18:45:48.848Z,20.00
2017-05-24T18:48:17.096Z,20.00
2017-05-24T18:50:45.488Z,20.00
2017-05-24T18:53:13.786Z,19.80
2017-05-24T18:55:42.053Z,19.60
2017-05-24T18:58:10.308Z,19.60
2017-05-24T19:00:38.768Z,19.50
2017-05-24T19:03:07.421Z,19.40
2017-05-24T19:05:35.763Z,19.20
2017-05-24T19:08:04.626Z,19.20
2017-05-24T19:10:33.502Z,19.10
2017-05-24T19:13:01.863Z,19.00
2017-05-24T19:15:30.603Z,19.00
2017-05-24T19:17:59.514Z,19.00
2017-05-24T19:20:28.314Z,19.00
2017-05-24T19:22:56.690Z,18.90
2017-05-24T19:25:25.425Z,18.90
2017-05-24T19:27:54.325Z,18.80
2017-05-24T19:30:23.345Z,18.80
2017-05-24T19:32:52.147Z,18.80
2017-05-24T19:35:20.963Z,18.70
2017-05-24T19:37:49.916Z,18.60
2017-05-24T19:40:18.732Z,18.60
2017-05-24T19:42:47.568Z,18.60
2017-05-24T19:45:16.444Z,18.60
2017-05-24T19:47:45.433Z,18.60
2017-05-24T19:50:14.269Z,18.60
2017-05-24T19:52:43.159Z,18.60
2017-05-24T19:55:11.987Z,18.60
2017-05-24T19:57:40.926Z,18.60
2017-05-24T20:00:09.747Z,18.60
2017-05-24T20:02:38.710Z,18.70
2017-05-24T20:05:07.624Z,18.90
2017-05-24T20:07:36.476Z,18.80
2017-05-24T20:10:05.288Z,18.80
2017-05-24T20:12:34.149Z,18.90
2017-05-24T20:15:02.979Z,18.80
2017-05-24T20:17:31.816Z,18.90
2017-05-24T20:20:00.663Z,19.00
2017-05-24T20:22:29.482Z,19.00
2017-05-24T20:24:58.304Z,18.90
2017-05-24T20:27:27.150Z,19.00
2017-05-24T20:29:56.847Z,18.90
2017-05-24T20:32:25.706Z,18.70
2017-05-24T20:34:54.527Z,18.60
2017-05-24T20:37:23.343Z,18.60
2017-05-24T20:39:52.206Z,18.60
2017-05-24T20:42:21.028Z,18.60
2017-05-24T20:44:49.843Z,18.50
2017-05-24T20:47:18.696Z,18.60
2017-05-24T20:49:46.835Z,18.60
2017-05-24T20:52:15.664Z,18.50
2017-05-24T20:54:44.495Z,18.60
2017-05-24T20:57:13.315Z,18.60
2017-05-24T20:59:42.151Z,18.40
2017-05-24T21:02:10.968Z,18.40
2017-05-24T21:04:39.821Z,18.30
2017-05-24T21:07:08.643Z,18.10
2017-05-24T21:09:37.472Z,18.30
2017-05-24T21:12:06.341Z,18.10
2017-05-24T21:14:35.153Z,18.00
2017-05-24T21:17:03.971Z,18.00
2017-05-24T21:19:32.803Z,17.90
2017-05-24T21:22:01.616Z,17.70
2017-05-24T21:24:30.465Z,17.60
2017-05-24T21:26:59.299Z,17.40
2017-05-24T21:29:28.123Z,17.30
2017-05-24T21:31:56.965Z,17.20
2017-05-24T21:34:25.805Z,17.30
2017-05-24T21:36:54.712Z,17.30
2017-05-24T21:39:23.492Z,17.50
2017-05-24T21:41:52.379Z,17.40
2017-05-24T21:44:21.212Z,17.20
2017-05-24T21:46:50.055Z,17.20
2017-05-24T21:49:18.926Z,17.10
2017-05-24T21:51:47.729Z,17.10
2017-05-24T21:54:17.196Z,17.10
2017-05-24T21:56:46.038Z,17.30
2017-05-24T21:59:14.944Z,17.40
2017-05-24T22:01:43.735Z,17.50
2017-05-24T22:04:12.604Z,17.50
2017-05-24T22:06:41.418Z,17.50
2017-05-24T22:09:10.240Z,17.50
2017-05-24T22:11:39.131Z,17.50
2017-05-24T22:14:07.940Z,17.30
2017-05-24T22:16:36.762Z,17.30
2017-05-24T22:19:05.685Z,17.20
2017-05-24T22:21:34.592Z,17.20
2017-05-24T22:24:03.405Z,17.20
2017-05-24T22:26:32.256Z,17.20
2017-05-24T22:29:01.080Z,17.10
2017-05-24T22:31:29.900Z,16.90
2017-05-24T22:33:58.772Z,16.80
2017-05-24T22:36:27.574Z,16.90
2017-05-24T22:38:56.376Z,17.00
2017-05-24T22:41:25.231Z,17.10
2017-05-24T22:43:54.035Z,17.20
2017-05-24T22:46:23.049Z,17.10
2017-05-24T22:48:51.872Z,17.10
2017-05-24T22:51:20.714Z,17.10
2017-05-24T22:53:49.584Z,17.00
2017-05-24T22:56:18.479Z,16.90
2017-05-24T22:58:47.302Z,16.90
2017-05-24T23:01:16.131Z,16.70
2017-05-24T23:03:44.952Z,16.70
2017-05-24T23:06:13.797Z,16.60
2017-05-24T23:08:42.655Z,16.60
2017-05-24T23:11:11.447Z,16.50
2017-05-24T23:13:40.270Z,16.60
2017-05-24T23:16:09.108Z,16.50
2017-05-24T23:18:37.963Z,16.50
2017-05-24T23:21:06.844Z,16.40
2017-05-24T23:23:35.650Z,16.50
2017-05-24T23:26:04.476Z,16.60
2017-05-24T23:28:33.371Z,16.60
2017-05-24T23:31:02.255Z,16.60
2017-05-24T23:33:31.185Z,16.60
2017-05-24T23:36:00.011Z,16.60
2017-05-24T23:38:28.883Z,16.60
2017-05-24T23:40:57.815Z,16.60
2017-05-24T23:43:26.668Z,16.60
2017-05-24T23:45:55.587Z,17.40
2017-05-24T23:48:24.541Z,16.50
2017-05-24T23:50:53.318Z,16.20
2017-05-24T23:53:22.184Z,16.20
2017-05-24T23:55:50.262Z,16.20
2017-05-24T23:58:19.069Z,16.40
